Time;durP1;ratioP1;P1;durP2;ratioP2;P2;SDS_P1;SDS_P2;PMS_P1;PMS_P2;Temp;Humidity;BMP_temperature;BMP_pressure;BME280_temperature;BME280_humidity;BME280_pressure;Samples;Min_cycle;Max_cycle;Signal;HPM_P1;HPM_P2
2023/04/27 00:00:48;;;;;;;8.10;3.58;;;1.90;99.90;;;;;;4863738;29;20113;-79
2023/04/27 00:03:15;;;;;;;6.03;3.22;;;2.60;99.90;;;;;;4878587;29;20041;-79
2023/04/27 00:05:42;;;;;;;9.68;3.83;;;2.60;99.90;;;;;;4863258;29;20045;-79
2023/04/27 00:08:09;;;;;;;11.02;3.97;;;1.90;99.90;;;;;;4848646;29;20144;-79
2023/04/27 00:10:36;;;;;;;8.90;3.35;;;1.80;99.90;;;;;;4848313;29;20133;-79
2023/04/27 00:13:03;;;;;;;6.75;3.65;;;2.00;99.90;;;;;;4863068;29;20108;-79
2023/04/27 00:15:29;;;;;;;6.68;3.05;;;2.50;99.90;;;;;;4878749;29;20060;-79
2023/04/27 00:17:56;;;;;;;8.05;3.63;;;1.80;99.90;;;;;;4863458;29;20054;-79
2023/04/27 00:20:23;;;;;;;6.90;3.63;;;1.90;99.90;;;;;;4863022;29;20109;-79
2023/04/27 00:22:50;;;;;;;5.85;3.58;;;1.90;99.90;;;;;;4863157;29;20128;-79
2023/04/27 00:25:17;;;;;;;7.35;3.45;;;1.70;99.90;;;;;;4878631;29;20132;-80
2023/04/27 00:27:43;;;;;;;8.57;3.50;;;1.70;99.90;;;;;;4863369;29;20041;-80
2023/04/27 00:30:10;;;;;;;8.75;3.40;;;2.20;99.90;;;;;;4878198;29;20132;-81
2023/04/27 00:32:37;;;;;;;6.18;2.97;;;1.70;99.90;;;;;;4878545;29;20052;-80
2023/04/27 00:35:04;;;;;;;5.40;3.10;;;1.90;99.90;;;;;;4878358;29;20105;-80
2023/04/27 00:37:31;;;;;;;7.13;3.50;;;1.70;99.90;;;;;;4878336;29;20136;-81
2023/04/27 00:39:57;;;;;;;6.80;3.55;;;1.80;99.90;;;;;;4859733;29;20050;-80
2023/04/27 00:42:24;;;;;;;10.27;3.65;;;1.60;99.90;;;;;;4844515;29;20046;-80
2023/04/27 00:44:51;;;;;;;7.43;3.20;;;1.60;99.90;;;;;;4844576;29;20049;-80
2023/04/27 00:47:18;;;;;;;9.88;3.60;;;2.30;99.90;;;;;;4859984;29;20133;-80
2023/04/27 00:49:45;;;;;;;5.72;3.05;;;1.60;99.90;;;;;;4859897;29;20041;-80
2023/04/27 00:52:11;;;;;;;7.63;3.67;;;1.60;99.90;;;;;;4847587;29;20052;-81
2023/04/27 00:54:38;;;;;;;6.80;3.15;;;1.60;99.90;;;;;;4862623;29;20132;-80
2023/04/27 00:57:05;;;;;;;6.13;3.22;;;2.00;99.90;;;;;;4877522;29;20082;-80
2023/04/27 00:59:32;;;;;;;7.18;3.75;;;1.80;99.90;;;;;;4878037;29;20507;-80
2023/04/27 01:01:59;;;;;;;8.93;3.08;;;2.20;99.90;;;;;;4877615;29;20053;-81
2023/04/27 01:04:27;;;;;;;7.60;3.55;;;1.80;99.90;;;;;;4862538;29;20590;-80
2023/04/27 01:06:54;;;;;;;8.07;4.18;;;2.30;99.90;;;;;;4877560;29;20627;-80
2023/04/27 01:09:20;;;;;;;10.77;4.05;;;1.90;99.90;;;;;;4862390;29;20132;-80
2023/04/27 01:11:47;;;;;;;8.48;3.92;;;2.10;99.90;;;;;;4862805;29;20049;-81
2023/04/27 01:14:14;;;;;;;9.27;4.05;;;2.10;99.90;;;;;;4877321;29;20065;-81
2023/04/27 01:16:40;;;;;;;11.18;4.25;;;2.00;99.90;;;;;;4877912;29;20049;-80
2023/04/27 01:19:08;;;;;;;9.80;3.78;;;2.60;99.90;;;;;;4862131;29;20067;-81
2023/04/27 01:21:34;;;;;;;11.48;4.10;;;2.50;99.90;;;;;;4877851;29;20041;-80
2023/04/27 01:24:04;;;;;;;10.52;4.18;;;2.20;99.90;;;;;;4861639;29;20129;-80
2023/04/27 01:26:31;;;;;;;8.73;3.92;;;2.10;99.90;;;;;;4892879;29;20050;-80
2023/04/27 01:28:58;;;;;;;7.85;3.85;;;2.20;99.90;;;;;;4862016;29;20045;-80
2023/04/27 01:31:25;;;;;;;10.18;3.65;;;2.20;99.90;;;;;;4877427;29;20045;-80
2023/04/27 01:33:51;;;;;;;8.65;4.00;;;2.90;99.90;;;;;;4862251;29;20041;-80
2023/04/27 01:36:18;;;;;;;9.65;4.10;;;2.30;99.90;;;;;;4846834;29;20057;-80
2023/04/27 01:38:45;;;;;;;8.30;4.10;;;2.30;99.90;;;;;;4851107;29;20084;-80
2023/04/27 01:41:11;;;;;;;12.15;3.95;;;2.60;99.90;;;;;;4873644;29;20052;-80
2023/04/27 01:43:38;;;;;;;10.18;4.00;;;2.90;99.90;;;;;;4852525;29;20499;-80
2023/04/27 01:46:07;;;;;;;7.78;3.75;;;3.10;99.90;;;;;;4861699;29;20509;-80
2023/04/27 01:48:34;;;;;;;11.68;4.90;;;2.30;99.90;;;;;;4877641;29;20041;-80
2023/04/27 01:51:01;;;;;;;9.48;4.00;;;2.50;99.90;;;;;;4892220;29;20406;-81
2023/04/27 01:53:28;;;;;;;11.38;4.82;;;2.40;99.90;;;;;;4876993;29;20041;-81
2023/04/27 01:55:56;;;;;;;5.93;3.17;;;2.40;99.90;;;;;;4876857;29;20109;-80
2023/04/27 01:58:23;;;;;;;10.18;4.47;;;2.30;99.90;;;;;;4892349;29;20128;-80
2023/04/27 02:00:49;;;;;;;7.40;4.13;;;2.30;99.90;;;;;;4861803;29;20152;-80
2023/04/27 02:03:16;;;;;;;12.88;4.63;;;2.30;99.90;;;;;;4861329;29;20045;-80
2023/04/27 02:05:43;;;;;;;9.73;3.83;;;2.20;99.90;;;;;;4876697;29;20056;-80
2023/04/27 02:08:09;;;;;;;12.85;4.53;;;2.60;99.90;;;;;;4891692;29;20096;-81
2023/04/27 02:10:36;;;;;;;7.78;3.83;;;2.30;99.90;;;;;;4861918;29;20047;-81
2023/04/27 02:13:03;;;;;;;10.25;4.50;;;2.20;99.90;;;;;;4861570;29;20083;-79
2023/04/27 02:15:30;;;;;;;10.80;4.28;;;2.70;99.90;;;;;;4861728;29;20049;-80
2023/04/27 02:17:57;;;;;;;10.25;4.22;;;2.90;99.90;;;;;;4877203;29;20140;-80
2023/04/27 02:20:24;;;;;;;9.02;3.80;;;2.90;99.90;;;;;;4861838;29;20049;-80
2023/04/27 02:22:52;;;;;;;9.32;4.32;;;2.10;99.90;;;;;;4892229;29;20049;-80
2023/04/27 02:25:19;;;;;;;7.25;3.90;;;3.00;99.90;;;;;;4857851;29;20038;-80
2023/04/27 02:27:45;;;;;;;9.73;4.28;;;2.00;99.90;;;;;;4858351;29;20068;-80
2023/04/27 02:30:12;;;;;;;6.93;3.85;;;2.00;99.90;;;;;;4843331;29;20077;-80
2023/04/27 02:32:40;;;;;;;8.25;4.47;;;1.90;99.90;;;;;;4858187;29;20041;-80
2023/04/27 02:35:08;;;;;;;8.55;4.50;;;1.90;99.90;;;;;;4874291;29;20060;-80
2023/04/27 02:37:35;;;;;;;6.95;3.85;;;1.90;99.90;;;;;;4861720;29;20049;-79
2023/04/27 02:40:03;;;;;;;10.75;4.40;;;2.10;99.90;;;;;;4861937;29;20049;-79
2023/04/27 02:42:30;;;;;;;8.48;4.53;;;1.80;99.90;;;;;;4877180;29;20053;-80
2023/04/27 02:44:56;;;;;;;10.40;3.88;;;1.80;99.90;;;;;;4880450;29;20049;-80
2023/04/27 02:47:23;;;;;;;8.40;3.97;;;2.20;99.90;;;;;;4876557;29;20038;-80
2023/04/27 02:49:50;;;;;;;9.48;4.10;;;1.80;99.90;;;;;;4846588;29;20042;-80
2023/04/27 02:52:16;;;;;;;8.60;3.92;;;2.30;99.90;;;;;;4861368;29;20547;-80
2023/04/27 02:54:43;;;;;;;7.85;4.13;;;1.60;99.90;;;;;;4862618;29;20128;-80
2023/04/27 02:57:10;;;;;;;7.93;3.65;;;2.20;99.90;;;;;;4864382;29;20052;-81
2023/04/27 02:59:36;;;;;;;7.07;3.75;;;1.80;99.90;;;;;;4880110;29;20049;-80
2023/04/27 03:02:03;;;;;;;7.95;3.85;;;1.90;99.90;;;;;;4864644;29;20045;-80
2023/04/27 03:04:30;;;;;;;7.68;4.10;;;1.50;99.90;;;;;;4879462;29;20521;-80
2023/04/27 03:06:56;;;;;;;8.13;3.88;;;1.40;99.90;;;;;;4864515;29;20045;-80
2023/04/27 03:09:23;;;;;;;6.90;3.67;;;1.40;99.90;;;;;;4863824;29;20076;-80
2023/04/27 03:11:50;;;;;;;9.10;4.25;;;1.40;99.90;;;;;;4864409;29;20049;-80
2023/04/27 03:14:16;;;;;;;6.75;3.40;;;1.30;99.90;;;;;;4864043;29;20153;-80
2023/04/27 03:16:43;;;;;;;8.80;3.90;;;1.30;99.90;;;;;;4861167;29;20045;-80
2023/04/27 03:19:10;;;;;;;6.63;3.40;;;1.60;99.90;;;;;;4861027;29;20044;-80
2023/04/27 03:21:36;;;;;;;6.63;3.58;;;2.10;99.90;;;;;;4846676;29;20105;-80
2023/04/27 03:24:03;;;;;;;6.00;3.55;;;2.10;99.90;;;;;;4861051;29;20042;-80
2023/04/27 03:26:30;;;;;;;6.40;3.90;;;1.10;99.90;;;;;;4860375;29;20052;-80
2023/04/27 03:28:57;;;;;;;6.65;3.50;;;2.00;99.90;;;;;;4876364;29;20038;-80
2023/04/27 03:31:24;;;;;;;8.40;3.95;;;1.10;99.90;;;;;;4876406;29;20582;-81
2023/04/27 03:33:50;;;;;;;6.72;3.50;;;1.90;99.90;;;;;;4876261;29;20042;-80
2023/04/27 03:36:17;;;;;;;6.18;3.85;;;1.10;99.90;;;;;;4861467;29;20128;-80
2023/04/27 03:38:44;;;;;;;7.05;3.88;;;1.00;99.90;;;;;;4863943;29;20049;-80
2023/04/27 03:41:11;;;;;;;6.38;3.33;;;1.00;99.90;;;;;;4864434;29;20043;-80
2023/04/27 03:43:38;;;;;;;5.65;3.30;;;1.10;99.90;;;;;;4878900;29;20049;-80
2023/04/27 03:46:05;;;;;;;9.48;3.78;;;1.00;99.90;;;;;;4878441;29;20105;-80
2023/04/27 03:48:31;;;;;;;8.43;3.85;;;1.00;99.90;;;;;;4879039;29;20574;-80
2023/04/27 03:50:59;;;;;;;7.80;3.83;;;1.20;99.90;;;;;;4878820;29;20053;-80
2023/04/27 03:53:26;;;;;;;8.13;3.67;;;1.00;99.90;;;;;;4848320;29;20513;-80
2023/04/27 03:55:53;;;;;;;7.35;3.72;;;1.00;99.90;;;;;;4878828;29;20050;-79
2023/04/27 03:58:19;;;;;;;8.75;4.30;;;1.00;99.90;;;;;;4878221;29;20045;-80
2023/04/27 04:00:46;;;;;;;6.60;3.83;;;1.00;99.90;;;;;;4863412;29;20519;-80
2023/04/27 04:03:13;;;;;;;9.02;4.05;;;0.90;99.90;;;;;;4848137;29;20128;-80
2023/04/27 04:05:39;;;;;;;7.32;3.78;;;0.90;99.90;;;;;;4862964;29;20050;-80
2023/04/27 04:08:06;;;;;;;7.63;3.58;;;1.90;99.90;;;;;;4863235;29;20098;-80
2023/04/27 04:10:33;;;;;;;8.70;4.30;;;0.90;99.90;;;;;;4848120;29;20079;-80
2023/04/27 04:12:59;;;;;;;8.27;3.90;;;1.40;99.90;;;;;;4863593;29;20106;-80
2023/04/27 04:15:26;;;;;;;7.78;4.07;;;1.70;99.90;;;;;;4878534;29;20049;-80
2023/04/27 04:17:53;;;;;;;10.38;4.22;;;0.90;99.90;;;;;;4878539;29;20045;-80
2023/04/27 04:20:19;;;;;;;9.13;4.10;;;0.80;99.90;;;;;;4831151;29;20049;-80
2023/04/27 04:22:46;;;;;;;7.50;3.85;;;0.90;99.90;;;;;;4844830;29;20058;-80
2023/04/27 04:25:13;;;;;;;9.80;4.30;;;0.90;99.90;;;;;;4860081;29;20496;-80
2023/04/27 04:27:40;;;;;;;8.32;3.58;;;1.80;99.90;;;;;;4874640;29;20052;-80
2023/04/27 04:30:07;;;;;;;10.27;4.45;;;1.20;99.90;;;;;;4844986;29;20049;-80
2023/04/27 04:32:36;;;;;;;8.55;4.10;;;0.90;99.90;;;;;;4844939;29;20086;-80
2023/04/27 04:35:05;;;;;;;10.30;4.38;;;1.20;99.90;;;;;;4845178;29;20128;-80
2023/04/27 04:37:34;;;;;;;8.75;4.18;;;0.90;99.90;;;;;;4859261;29;20052;-80
2023/04/27 04:40:07;;;;;;;7.88;4.43;;;0.90;99.90;;;;;;4870034;29;20056;-80
2023/04/27 04:42:38;;;;;;;8.82;4.47;;;0.90;99.90;;;;;;4863152;29;20049;-80
2023/04/27 04:45:06;;;;;;;10.50;5.00;;;0.90;99.90;;;;;;4878532;29;20061;-80
2023/04/27 04:47:33;;;;;;;9.75;4.70;;;1.00;99.90;;;;;;4847865;29;20122;-80
2023/04/27 04:50:00;;;;;;;9.18;4.80;;;1.00;99.90;;;;;;4847981;29;20167;-80
2023/04/27 04:52:26;;;;;;;8.30;4.45;;;1.20;99.90;;;;;;4893008;29;20056;-80
2023/04/27 04:54:53;;;;;;;9.73;4.43;;;1.80;99.90;;;;;;4863158;29;20145;-80
2023/04/27 04:57:20;;;;;;;10.77;5.10;;;1.60;99.90;;;;;;4862274;29;20045;-80
2023/04/27 04:59:46;;;;;;;8.45;4.43;;;1.10;99.90;;;;;;4847134;29;20129;-80
2023/04/27 05:02:13;;;;;;;10.82;5.03;;;1.20;99.90;;;;;;4862585;29;20042;-80
2023/04/27 05:04:40;;;;;;;9.85;5.00;;;1.80;99.90;;;;;;4877235;29;20102;-80
2023/04/27 05:07:06;;;;;;;9.57;4.53;;;1.10;99.90;;;;;;4862359;29;20510;-80
2023/04/27 05:09:33;;;;;;;9.77;5.47;;;1.90;99.90;;;;;;4862219;29;20064;-80
2023/04/27 05:12:00;;;;;;;15.30;5.45;;;1.20;99.90;;;;;;4859209;29;20052;-80
2023/04/27 05:14:27;;;;;;;9.48;4.97;;;1.30;99.90;;;;;;4874041;29;20042;-80
2023/04/27 05:16:54;;;;;;;11.98;5.63;;;2.20;99.90;;;;;;4859442;29;20046;-80
2023/04/27 05:19:21;;;;;;;10.75;6.22;;;1.80;99.90;;;;;;4859003;29;20129;-80
2023/04/27 05:21:47;;;;;;;16.83;7.75;;;1.40;99.90;;;;;;4855573;29;20050;-80
2023/04/27 05:24:14;;;;;;;18.27;7.72;;;1.50;99.90;;;;;;4862459;29;20101;-80
2023/04/27 05:26:44;;;;;;;18.67;7.40;;;1.60;99.90;;;;;;4847118;29;20046;-80
2023/04/27 05:29:11;;;;;;;13.60;6.95;;;1.70;99.90;;;;;;4877286;29;20517;-80
2023/04/27 05:31:37;;;;;;;12.00;6.95;;;1.80;99.90;;;;;;4858935;29;20050;-80
2023/04/27 05:34:04;;;;;;;15.05;6.55;;;1.90;99.90;;;;;;4874381;29;20049;-80
2023/04/27 05:36:31;;;;;;;13.00;6.43;;;2.00;99.90;;;;;;4858922;29;20081;-80
2023/04/27 05:38:57;;;;;;;15.52;7.10;;;2.30;99.90;;;;;;4843978;29;20042;-80
2023/04/27 05:41:24;;;;;;;12.57;5.57;;;2.40;99.90;;;;;;4847334;29;20043;-80
2023/04/27 05:43:52;;;;;;;10.20;5.63;;;2.20;99.90;;;;;;4876777;29;20081;-80
2023/04/27 05:46:19;;;;;;;15.68;5.90;;;2.20;99.90;;;;;;4862320;29;20045;-80
2023/04/27 05:48:46;;;;;;;11.40;5.65;;;3.10;99.90;;;;;;4877202;29;20052;-80
2023/04/27 05:51:13;;;;;;;10.95;5.60;;;2.30;99.90;;;;;;4877018;29;20045;-80
2023/04/27 05:53:40;;;;;;;12.60;6.10;;;2.40;99.90;;;;;;4873342;29;20046;-80
2023/04/27 05:56:07;;;;;;;14.65;5.63;;;2.50;99.90;;;;;;4858619;29;20085;-80
2023/04/27 05:58:33;;;;;;;14.30;5.70;;;2.50;99.90;;;;;;4858413;29;20042;-80
2023/04/27 06:01:02;;;;;;;10.15;4.88;;;3.00;99.90;;;;;;4873545;29;20133;-80
2023/04/27 06:03:29;;;;;;;10.88;5.15;;;2.70;99.90;;;;;;4846683;29;20479;-80
2023/04/27 06:05:58;;;;;;;13.25;5.40;;;3.60;99.90;;;;;;4876194;29;20092;-80
2023/04/27 06:08:25;;;;;;;11.35;5.60;;;2.80;99.90;;;;;;4876512;29;20053;-80
2023/04/27 06:10:53;;;;;;;10.50;5.35;;;2.90;99.90;;;;;;4876409;29;20045;-80
2023/04/27 06:13:20;;;;;;;9.82;4.78;;;3.40;99.90;;;;;;4861681;29;20055;-80
2023/04/27 06:15:47;;;;;;;11.43;5.18;;;3.10;99.90;;;;;;4876591;29;20423;-80
2023/04/27 06:18:14;;;;;;;10.20;5.15;;;3.10;99.90;;;;;;4862148;29;20045;-80
2023/04/27 06:20:41;;;;;;;10.35;5.00;;;3.70;99.90;;;;;;4862416;29;20151;-80
2023/04/27 06:23:08;;;;;;;10.10;4.78;;;3.40;99.90;;;;;;4877037;29;20060;-80
2023/04/27 06:25:37;;;;;;;8.65;4.90;;;3.40;99.90;;;;;;4876808;29;20499;-80
2023/04/27 06:28:04;;;;;;;13.30;4.55;;;3.50;99.90;;;;;;4892242;29;20502;-81
2023/04/27 06:30:31;;;;;;;11.73;4.57;;;3.50;99.90;;;;;;4862124;29;20041;-81
2023/04/27 06:32:57;;;;;;;9.10;4.63;;;3.60;99.90;;;;;;4876175;29;20105;-81
2023/04/27 06:35:24;;;;;;;9.25;4.70;;;3.70;99.90;;;;;;4876551;29;20570;-80
2023/04/27 06:37:51;;;;;;;9.40;4.43;;;4.10;99.90;;;;;;4883048;29;20526;-80
2023/04/27 06:40:18;;;;;;;9.93;4.78;;;4.00;99.90;;;;;;4847026;29;20037;-81
2023/04/27 06:42:44;;;;;;;10.20;4.88;;;4.00;99.90;;;;;;4860987;29;20049;-81
2023/04/27 06:45:11;;;;;;;12.02;4.85;;;4.10;99.90;;;;;;4861708;29;20060;-81
2023/04/27 06:47:38;;;;;;;9.63;4.03;;;4.20;99.90;;;;;;4862022;29;20759;-81
2023/04/27 06:50:05;;;;;;;11.82;4.15;;;4.40;99.90;;;;;;4861901;29;20080;-81
2023/04/27 06:52:32;;;;;;;9.23;4.57;;;4.40;99.90;;;;;;4861885;29;20041;-81
2023/04/27 06:54:59;;;;;;;10.48;4.55;;;4.50;99.90;;;;;;4858131;29;20049;-81
2023/04/27 06:57:26;;;;;;;7.68;3.95;;;4.80;99.90;;;;;;4855712;29;20049;-81
2023/04/27 06:59:53;;;;;;;8.75;3.85;;;4.80;99.90;;;;;;4861803;29;20085;-81
2023/04/27 07:02:20;;;;;;;8.85;3.92;;;4.90;99.90;;;;;;4861800;29;20049;-81
2023/04/27 07:04:46;;;;;;;7.80;3.40;;;5.40;99.90;;;;;;4876159;29;20049;-81
2023/04/27 07:07:13;;;;;;;7.45;3.25;;;5.20;99.90;;;;;;4876529;29;20042;-81
2023/04/27 07:09:40;;;;;;;7.50;3.63;;;5.60;99.90;;;;;;4846287;29;20499;-81
2023/04/27 07:12:07;;;;;;;9.10;3.80;;;5.40;99.90;;;;;;4845865;29;20045;-81
2023/04/27 07:14:33;;;;;;;12.00;3.85;;;5.60;99.90;;;;;;4861126;29;20132;-82
2023/04/27 07:17:00;;;;;;;10.32;4.03;;;5.80;99.90;;;;;;4875805;29;20517;-82
2023/04/27 07:19:27;;;;;;;7.15;3.42;;;5.90;99.90;;;;;;4861127;29;20376;-83
2023/04/27 07:21:53;;;;;;;6.20;3.55;;;6.00;99.90;;;;;;4864662;29;20070;-82
2023/04/27 07:24:20;;;;;;;9.45;4.10;;;6.10;99.90;;;;;;4846303;29;20045;-83
2023/04/27 07:26:47;;;;;;;7.03;3.92;;;6.30;99.90;;;;;;4873797;29;20041;-83
2023/04/27 07:29:16;;;;;;;9.52;3.97;;;6.40;99.90;;;;;;4863997;29;20395;-82
2023/04/27 07:31:42;;;;;;;8.13;3.67;;;6.50;99.90;;;;;;4864139;29;20414;-82
2023/04/27 07:34:10;;;;;;;5.13;3.10;;;6.60;99.90;;;;;;4878843;29;20045;-82
2023/04/27 07:36:37;;;;;;;6.40;3.10;;;6.70;99.90;;;;;;4863833;29;20057;-82
2023/04/27 07:39:03;;;;;;;7.63;3.30;;;6.80;99.90;;;;;;4863845;29;20049;-82
2023/04/27 07:41:32;;;;;;;7.35;3.00;;;6.90;99.90;;;;;;4894644;29;20448;-82
2023/04/27 07:43:59;;;;;;;10.05;3.38;;;7.00;99.90;;;;;;4878966;29;20121;-82
2023/04/27 07:46:26;;;;;;;6.25;3.08;;;7.20;99.90;;;;;;4879279;29;20169;-82
2023/04/27 07:48:54;;;;;;;6.63;3.10;;;7.30;99.90;;;;;;4863595;29;20045;-82
2023/04/27 07:51:20;;;;;;;7.28;3.00;;;7.40;99.90;;;;;;4863623;29;20046;-82
2023/04/27 07:53:47;;;;;;;10.55;2.70;;;7.50;99.90;;;;;;4894282;29;20541;-82
2023/04/27 07:56:14;;;;;;;8.07;3.45;;;7.60;99.90;;;;;;4873514;29;20052;-82
2023/04/27 07:58:41;;;;;;;6.72;3.10;;;7.60;99.90;;;;;;4875868;29;20045;-82
2023/04/27 08:01:08;;;;;;;5.20;3.00;;;7.70;99.90;;;;;;4848109;29;20132;-82
2023/04/27 08:03:35;;;;;;;6.57;2.67;;;7.80;99.90;;;;;;4878463;29;20468;-82
2023/04/27 08:06:03;;;;;;;5.03;2.47;;;7.90;99.90;;;;;;4862807;29;20517;-82
2023/04/27 08:08:30;;;;;;;5.15;2.85;;;7.90;99.90;;;;;;4867478;29;20064;-81
2023/04/27 08:10:57;;;;;;;5.63;2.72;;;8.00;99.90;;;;;;4848120;29;20495;-82
2023/04/27 08:13:24;;;;;;;8.38;3.05;;;8.00;99.90;;;;;;4847977;29;20056;-81
2023/04/27 08:15:53;;;;;;;8.98;3.30;;;8.10;99.90;;;;;;4893599;29;20081;-82
2023/04/27 08:18:20;;;;;;;8.02;3.15;;;8.20;99.90;;;;;;4848561;29;20088;-82
2023/04/27 08:20:47;;;;;;;5.68;2.75;;;8.30;99.90;;;;;;4878192;29;20515;-82
2023/04/27 08:23:14;;;;;;;5.53;2.90;;;8.30;99.90;;;;;;4862914;29;20077;-82
2023/04/27 08:25:40;;;;;;;7.85;2.85;;;8.50;99.90;;;;;;4848018;29;20045;-82
2023/04/27 08:28:07;;;;;;;7.78;3.10;;;8.60;99.90;;;;;;4847789;29;20073;-82
2023/04/27 08:30:34;;;;;;;5.40;3.10;;;8.70;99.90;;;;;;4893875;29;20037;-82
2023/04/27 08:33:00;;;;;;;6.30;3.35;;;8.90;99.90;;;;;;4862077;29;20042;-82
2023/04/27 08:35:27;;;;;;;6.43;3.38;;;9.00;99.90;;;;;;4882020;29;20046;-83
2023/04/27 08:37:54;;;;;;;6.75;3.70;;;9.10;99.90;;;;;;4850755;29;20105;-82
2023/04/27 08:40:21;;;;;;;5.72;3.17;;;9.20;99.90;;;;;;4873754;29;20041;-82
2023/04/27 08:42:58;;;;;;;5.97;3.20;;;9.30;99.90;;;;;;4869564;29;20387;-82
2023/04/27 08:45:26;;;;;;;5.80;3.15;;;9.30;99.90;;;;;;4893694;29;20111;-82
2023/04/27 08:47:53;;;;;;;4.93;3.00;;;9.40;99.90;;;;;;4848301;29;20045;-82
2023/04/27 08:50:20;;;;;;;6.80;2.80;;;9.50;99.90;;;;;;4862821;29;20038;-82
2023/04/27 08:52:47;;;;;;;5.70;2.97;;;9.50;99.90;;;;;;4859801;29;20046;-82
2023/04/27 08:55:14;;;;;;;7.80;3.00;;;9.60;99.90;;;;;;4874351;29;20049;-82
2023/04/27 08:57:40;;;;;;;6.32;3.08;;;9.60;99.90;;;;;;4833554;29;20055;-82
2023/04/27 09:00:12;;;;;;;7.63;2.78;;;9.70;99.90;;;;;;4859651;29;20044;-82
2023/04/27 09:02:48;;;;;;;5.55;2.65;;;9.80;99.90;;;;;;4879412;29;20225;-82
2023/04/27 09:05:19;;;;;;;5.55;2.78;;;10.00;99.90;;;;;;4875213;29;20124;-82
2023/04/27 09:08:04;;;;;;;5.32;3.17;;;10.00;99.90;;;;;;4883354;29;20038;-82
2023/04/27 09:10:46;;;;;;;6.10;2.83;;;10.10;99.90;;;;;;4869035;29;20510;-80
2023/04/27 09:13:14;;;;;;;7.28;3.13;;;10.20;99.90;;;;;;4882885;29;20494;-80
2023/04/27 09:15:43;;;;;;;6.15;2.63;;;10.30;99.90;;;;;;4899629;29;20048;-80
2023/04/27 09:18:21;;;;;;;8.07;2.40;;;10.40;99.90;;;;;;4890190;29;20063;-80
2023/04/27 09:20:52;;;;;;;5.25;2.80;;;10.30;99.90;;;;;;4880656;29;20553;-80
2023/04/27 09:23:45;;;;;;;5.95;3.03;;;10.40;99.90;;;;;;4881814;29;20517;-80
2023/04/27 09:26:20;;;;;;;11.20;2.70;;;10.60;99.90;;;;;;4867449;29;20060;-80
2023/04/27 09:28:55;;;;;;;6.50;2.95;;;10.90;99.90;;;;;;4866931;29;20045;-80
2023/04/27 09:31:31;;;;;;;5.40;2.60;;;11.10;99.90;;;;;;4885812;29;20037;-80
2023/04/27 09:33:58;;;;;;;6.60;3.00;;;11.30;99.90;;;;;;4892810;29;20038;-80
2023/04/27 09:36:25;;;;;;;6.50;3.33;;;11.50;99.90;;;;;;4863875;29;20049;-79
2023/04/27 09:38:52;;;;;;;6.18;2.83;;;11.60;99.90;;;;;;4893166;29;20422;-79
2023/04/27 09:41:20;;;;;;;8.13;3.08;;;11.50;99.90;;;;;;4879479;29;20451;-80
2023/04/27 09:43:49;;;;;;;5.82;2.70;;;11.40;99.90;;;;;;4879784;29;20145;-80
2023/04/27 09:46:16;;;;;;;6.10;2.95;;;11.50;99.90;;;;;;4876631;29;20106;-80
2023/04/27 09:48:42;;;;;;;7.50;2.80;;;11.40;99.90;;;;;;4876636;29;20081;-80
2023/04/27 09:51:09;;;;;;;5.07;2.70;;;11.40;99.90;;;;;;4861390;29;20629;-80
2023/04/27 09:53:37;;;;;;;5.85;2.95;;;11.40;99.90;;;;;;4858345;29;20516;-80
2023/04/27 09:56:22;;;;;;;7.25;3.30;;;11.30;99.90;;;;;;4872695;29;20056;-80
2023/04/27 09:59:16;;;;;;;5.93;2.85;;;11.30;99.90;;;;;;4880961;29;20132;-80
2023/04/27 10:01:58;;;;;;;6.38;2.88;;;11.30;99.70;;;;;;4887446;29;20076;-82
2023/04/27 10:04:48;;;;;;;7.50;2.85;;;11.30;99.90;;;;;;4876861;29;20057;-82
2023/04/27 10:07:16;;;;;;;6.57;2.80;;;11.50;99.90;;;;;;4866173;29;20041;-82
2023/04/27 10:09:48;;;;;;;6.85;2.90;;;11.50;99.90;;;;;;4861462;29;20066;-82
2023/04/27 10:12:22;;;;;;;8.85;3.00;;;11.60;99.90;;;;;;4876703;29;20873;-82
2023/04/27 10:14:57;;;;;;;7.30;3.40;;;11.60;99.90;;;;;;4876969;29;20506;-82
2023/04/27 10:17:32;;;;;;;6.88;3.17;;;11.60;99.90;;;;;;4882491;29;20048;-82
2023/04/27 10:20:07;;;;;;;8.35;3.22;;;11.60;99.90;;;;;;4895123;29;20036;-82
2023/04/27 10:22:43;;;;;;;;;;;11.40;99.90;;;;;;4887680;29;20041;-82
2023/04/27 10:25:36;;;;;;;6.85;3.40;;;11.30;98.90;;;;;;4875924;29;19975;-82
2023/04/27 10:28:03;;;;;;;7.18;3.50;;;11.30;99.90;;;;;;4885889;29;20069;-81
2023/04/27 10:30:35;;;;;;;7.82;3.53;;;11.30;99.90;;;;;;4894934;29;20050;-81
2023/04/27 10:33:09;;;;;;;7.13;3.25;;;11.20;99.90;;;;;;4909680;29;20045;-81
2023/04/27 10:35:53;;;;;;;8.55;3.38;;;11.10;98.80;;;;;;4895130;29;20049;-82
2023/04/27 10:38:26;;;;;;;7.68;3.55;;;11.20;99.70;;;;;;4894197;29;20045;-82
2023/04/27 10:41:00;;;;;;;10.20;3.55;;;11.10;99.90;;;;;;4894468;29;20490;-82
2023/04/27 10:43:30;;;;;;;7.85;3.28;;;11.10;99.60;;;;;;4909100;29;20455;-82
2023/04/27 10:46:15;;;;;;;6.47;3.10;;;11.00;99.00;;;;;;4861500;29;20059;-82
2023/04/27 10:48:43;;;;;;;6.05;3.42;;;11.00;99.00;;;;;;4876325;29;20045;-82
2023/04/27 10:51:14;;;;;;;5.80;2.95;;;11.00;99.90;;;;;;4876356;29;20045;-83
2023/04/27 10:53:41;;;;;;;5.03;3.03;;;11.00;99.50;;;;;;4876639;29;20101;-82
2023/04/27 10:56:09;;;;;;;6.70;3.03;;;11.00;99.90;;;;;;4863177;29;20045;-82
2023/04/27 10:58:37;;;;;;;6.43;2.90;;;10.90;99.90;;;;;;4870821;29;20392;-82
2023/04/27 11:01:03;;;;;;;7.47;3.08;;;10.90;99.90;;;;;;4895329;29;20562;-82
2023/04/27 11:03:30;;;;;;;7.35;3.17;;;10.80;98.80;;;;;;4864078;29;20049;-82
2023/04/27 11:06:04;;;;;;;8.88;3.45;;;10.70;99.90;;;;;;4849614;29;20166;-82
2023/04/27 11:08:43;;;;;;;8.50;3.60;;;10.90;99.90;;;;;;4861485;29;20087;-82
2023/04/27 11:11:14;;;;;;;4.85;3.05;;;10.80;99.90;;;;;;4889214;29;20041;-82
2023/04/27 11:13:43;;;;;;;7.18;3.40;;;10.80;99.90;;;;;;4903274;29;20116;-82
2023/04/27 11:16:10;;;;;;;7.03;3.05;;;10.80;99.90;;;;;;4880560;29;20049;-82
2023/04/27 11:18:37;;;;;;;7.90;3.60;;;10.90;99.90;;;;;;4879443;29;20093;-82
2023/04/27 11:21:11;;;;;;;8.70;3.30;;;10.80;99.90;;;;;;4861134;29;20049;-82
2023/04/27 11:23:38;;;;;;;6.18;3.20;;;10.80;99.90;;;;;;4873466;29;20121;-82
2023/04/27 11:26:15;;;;;;;6.15;3.20;;;10.80;99.90;;;;;;4895798;29;20037;-82
2023/04/27 11:29:00;;;;;;;7.32;3.20;;;10.80;98.70;;;;;;4898257;29;20045;-81
2023/04/27 11:31:37;;;;;;;7.38;3.00;;;10.90;99.70;;;;;;4882458;29;20391;-82
2023/04/27 11:34:05;;;;;;;6.20;3.47;;;10.90;99.50;;;;;;4881704;29;20109;-81
2023/04/27 11:36:32;;;;;;;6.40;3.25;;;11.00;99.90;;;;;;4864485;29;20144;-81
2023/04/27 11:38:59;;;;;;;5.85;3.08;;;11.00;99.90;;;;;;4895364;29;20128;-82
2023/04/27 11:41:33;;;;;;;6.90;3.45;;;11.00;99.70;;;;;;4882642;29;20059;-81
2023/04/27 11:44:08;;;;;;;8.68;3.30;;;11.00;99.30;;;;;;4852279;29;20084;-82
2023/04/27 11:46:35;;;;;;;7.03;3.63;;;11.10;99.00;;;;;;4878606;29;20084;-81
2023/04/27 11:49:09;;;;;;;7.47;3.30;;;11.20;99.80;;;;;;4894189;29;20100;-81
2023/04/27 11:51:38;;;;;;;6.95;3.03;;;11.20;98.50;;;;;;4864577;29;20105;-81
2023/04/27 11:54:06;;;;;;;9.00;3.50;;;11.40;99.90;;;;;;4908868;29;20096;-81
2023/04/27 11:56:37;;;;;;;8.93;3.30;;;11.50;99.90;;;;;;4894697;29;20080;-81
2023/04/27 11:59:04;;;;;;;6.22;3.20;;;11.70;99.60;;;;;;4878730;29;20403;-81
2023/04/27 12:01:34;;;;;;;9.70;3.30;;;11.70;99.30;;;;;;4878970;29;20045;-82
2023/04/27 12:04:01;;;;;;;6.18;3.15;;;11.80;98.00;;;;;;4848479;29;20048;-82
2023/04/27 12:06:28;;;;;;;7.55;3.03;;;11.90;99.40;;;;;;4862873;29;20046;-81
2023/04/27 12:08:56;;;;;;;7.10;3.30;;;11.90;97.80;;;;;;4878918;29;20096;-82
2023/04/27 12:11:28;;;;;;;6.57;3.75;;;12.00;99.20;;;;;;4878565;29;20045;-81
2023/04/27 12:13:56;;;;;;;5.50;3.00;;;11.90;98.60;;;;;;4864229;29;20185;-81
2023/04/27 12:16:23;;;;;;;7.60;3.40;;;12.00;99.60;;;;;;4894124;29;20136;-81
2023/04/27 12:18:49;;;;;;;8.52;3.17;;;12.10;99.50;;;;;;4863787;29;20480;-82
2023/04/27 12:21:17;;;;;;;7.05;3.25;;;12.00;99.40;;;;;;4863748;29;20042;-82
2023/04/27 12:23:43;;;;;;;6.95;3.63;;;12.00;98.90;;;;;;4879107;29;20078;-81
2023/04/27 12:26:11;;;;;;;8.18;3.40;;;12.00;99.40;;;;;;4863183;29;20130;-82
2023/04/27 12:28:37;;;;;;;7.82;3.28;;;12.10;98.90;;;;;;4862034;29;20052;-81
2023/04/27 12:31:04;;;;;;;7.82;3.67;;;12.10;99.30;;;;;;4848244;29;20411;-82
2023/04/27 12:33:31;;;;;;;8.02;3.38;;;12.10;98.60;;;;;;4878481;29;20046;-81
2023/04/27 12:35:58;;;;;;;7.30;4.20;;;12.10;99.30;;;;;;4863031;29;20045;-81
2023/04/27 12:38:25;;;;;;;7.18;3.58;;;12.10;99.30;;;;;;4862582;29;20134;-81
2023/04/27 12:40:52;;;;;;;9.55;3.60;;;12.10;99.00;;;;;;4878324;29;20495;-81
2023/04/27 12:43:19;;;;;;;6.78;3.30;;;12.20;99.70;;;;;;4862695;29;20128;-82
2023/04/27 12:45:45;;;;;;;6.80;3.42;;;12.30;99.90;;;;;;4857413;29;20066;-81
2023/04/27 12:48:13;;;;;;;5.47;3.25;;;12.40;99.80;;;;;;4896834;29;20045;-81
2023/04/27 12:50:40;;;;;;;8.52;3.92;;;12.40;99.80;;;;;;4866733;29;20055;-81
2023/04/27 12:53:07;;;;;;;6.90;3.20;;;12.40;99.60;;;;;;4878339;29;20046;-82
2023/04/27 12:55:35;;;;;;;11.10;4.22;;;12.60;99.90;;;;;;4862972;29;20117;-81
2023/04/27 12:58:03;;;;;;;7.60;3.80;;;12.50;99.30;;;;;;4877860;29;20045;-81